Time;durP1;ratioP1;P1;durP2;ratioP2;P2;SDS_P1;SDS_P2;PMS_P1;PMS_P2;Temp;Humidity;BMP_temperature;BMP_pressure;BME280_temperature;BME280_humidity;BME280_pressure;Samples;Min_cycle;Max_cycle;Signal;HPM_P1;HPM_P2
2022/06/20 00:01:15;;;;;;;;;40.25;38.00;;;;;17.17;84.06;100361.56;5147158;27;45724;-81
2022/06/20 00:03:44;;;;;;;;;42.75;37.25;;;;;17.14;83.94;100364.41;5126945;27;45219;-81
2022/06/20 00:06:14;;;;;;;;;40.50;34.00;;;;;17.12;84.69;100368.94;5123797;27;45316;-78
2022/06/20 00:08:40;;;;;;;;;34.00;28.00;;;;;17.10;86.63;100349.47;5117595;27;45410;-77
2022/06/20 00:11:05;;;;;;;;;37.00;34.75;;;;;17.12;86.51;100347.56;5117856;27;45396;-78
2022/06/20 00:13:33;;;;;;;;;41.75;37.50;;;;;17.00;84.76;100353.53;5134001;27;45347;-77
2022/06/20 00:16:00;;;;;;;;;33.75;29.50;;;;;16.96;87.87;100366.19;5118386;27;45597;-80
2022/06/20 00:18:26;;;;;;;;;36.50;32.00;;;;;17.01;90.85;100376.63;5118707;27;45512;-79
2022/06/20 00:20:52;;;;;;;;;32.25;30.75;;;;;17.04;91.73;100366.66;5118342;27;48214;-78
2022/06/20 00:23:18;;;;;;;;;39.00;36.50;;;;;17.08;89.39;100371.84;5116008;27;45474;-78
2022/06/20 00:25:43;;;;;;;;;34.25;30.75;;;;;17.11;88.65;100369.91;5117444;27;45551;-79
2022/06/20 00:28:11;;;;;;;;;43.25;37.25;;;;;17.12;88.79;100352.06;5116004;27;45551;-79
2022/06/20 00:30:38;;;;;;;;;39.00;36.25;;;;;17.11;89.75;100364.56;5117630;27;46448;-78
2022/06/20 00:33:04;;;;;;;;;45.00;39.50;;;;;16.83;90.17;100331.19;5118012;27;45518;-80
2022/06/20 00:35:32;;;;;;;;;37.25;35.00;;;;;16.96;90.79;100335.94;5118957;27;45396;-80
2022/06/20 00:37:59;;;;;;;;;44.00;39.25;;;;;16.95;89.73;100324.41;5124012;27;45334;-81
2022/06/20 00:40:32;;;;;;;;;32.25;29.00;;;;;16.83;90.88;100299.16;5125976;27;46300;-82
2022/06/20 00:42:59;;;;;;;;;25.00;23.00;;;;;16.60;89.95;100262.13;5123412;27;45322;-81
2022/06/20 00:45:27;;;;;;;;;36.75;33.50;;;;;16.57;91.84;100278.28;5124506;27;45336;-81
2022/06/20 00:48:04;;;;;;;;;44.75;38.00;;;;;16.31;92.70;100273.25;5122137;27;45656;-80
2022/06/20 00:50:32;;;;;;;;;40.25;36.25;;;;;16.30;94.10;100311.53;5119997;27;45456;-80
2022/06/20 00:53:02;;;;;;;;;38.00;34.00;;;;;16.41;96.47;100324.34;5121231;27;46150;-80
2022/06/20 00:55:31;;;;;;;;;41.00;35.25;;;;;16.47;97.06;100345.41;5114522;27;45360;-80
2022/06/20 00:58:04;;;;;;;;;38.75;35.50;;;;;16.29;93.56;100340.94;5130562;27;45256;-80
2022/06/20 01:00:35;;;;;;;;;45.00;38.00;;;;;16.52;95.51;100386.06;5137516;27;45204;-79
2022/06/20 01:03:11;;;;;;;;;40.00;35.50;;;;;16.31;96.40;100331.94;5122911;27;45353;-80
2022/06/20 01:05:45;;;;;;;;;40.75;32.75;;;;;16.62;93.08;100381.13;5118932;27;45564;-81
2022/06/20 01:08:22;;;;;;;;;36.00;27.25;;;;;16.61;94.07;100394.53;5121962;27;45371;-82
2022/06/20 01:10:52;;;;;;;;;39.75;36.00;;;;;16.60;94.22;100392.84;5121770;27;45389;-80
2022/06/20 01:13:21;;;;;;;;;30.00;29.75;;;;;16.43;94.14;100359.81;5116564;27;45410;-80
2022/06/20 01:15:50;;;;;;;;;38.50;34.75;;;;;16.65;93.58;100390.81;5120521;27;45364;-79
2022/06/20 01:18:24;;;;;;;;;41.25;33.00;;;;;16.65;93.61;100388.13;5132469;27;45567;-79
2022/06/20 01:20:51;;;;;;;;;38.50;30.50;;;;;16.64;93.43;100384.59;5116161;27;46439;-80
2022/06/20 01:23:30;;;;;;;;;37.75;31.50;;;;;16.62;93.23;100375.78;5116904;27;45585;-80
2022/06/20 01:26:07;;;;;;;;;34.25;28.50;;;;;16.68;94.14;100361.31;5117469;27;45396;-80
2022/06/20 01:28:36;;;;;;;;;34.50;29.75;;;;;16.73;93.92;100353.91;5117744;27;45640;-80
2022/06/20 01:31:03;;;;;;;;;34.00;30.50;;;;;16.43;96.00;100284.28;5117829;27;45466;-81
2022/06/20 01:33:28;;;;;;;;;39.00;35.50;;;;;16.73;94.98;100315.72;5116823;27;45450;-81
2022/06/20 01:38:42;;;;;;;;;38.00;33.00;;;;;16.65;94.45;100276.06;5118408;27;45322;-80
2022/06/20 01:43:55;;;;;;;;;32.75;32.50;;;;;16.54;94.87;100267.75;5107674;27;45521;-81
2022/06/20 01:46:26;;;;;;;;;31.75;27.25;;;;;16.48;95.98;100266.25;5119010;27;45418;-81
2022/06/20 01:49:05;;;;;;;;;31.25;29.75;;;;;16.51;97.08;100237.59;5115962;27;45779;-81
2022/06/20 01:51:43;;;;;;;;;33.00;31.25;;;;;16.46;97.08;100212.97;5116559;27;45481;-80
2022/06/20 01:54:12;;;;;;;;;28.00;27.00;;;;;16.37;95.63;100176.09;5118692;27;45347;-80
2022/06/20 01:56:40;;;;;;;;;31.00;31.00;;;;;16.28;96.83;100134.75;5120477;27;45497;-81
2022/06/20 01:59:12;;;;;;;;;30.00;26.25;;;;;16.17;98.46;100044.66;5124246;27;45511;-78
2022/06/20 02:01:37;;;;;;;;;34.75;31.50;;;;;16.19;96.83;99961.09;5116411;27;46796;-78
2022/06/20 02:04:14;;;;;;;;;35.50;30.75;;;;;16.15;97.11;99966.59;5117071;27;45449;-78
2022/06/20 02:06:40;;;;;;;;;33.75;31.50;;;;;16.15;96.68;99987.03;5118276;27;45446;-76
2022/06/20 02:09:06;;;;;;;;;32.00;28.50;;;;;16.12;96.40;100004.06;5118991;27;45399;-77
2022/06/20 02:11:34;;;;;;;;;21.00;21.00;;;;;15.89;94.81;99996.38;5119355;27;45649;-78
2022/06/20 02:14:05;;;;;;;;;34.25;29.75;;;;;15.91;96.60;100005.16;5119312;27;45311;-77
2022/06/20 02:16:35;;;;;;;;;32.75;28.00;;;;;16.08;98.14;100046.91;5119605;27;45436;-77
2022/06/20 02:19:05;;;;;;;;;28.75;25.50;;;;;16.03;96.22;100057.81;5119315;27;45411;-78
2022/06/20 02:21:32;;;;;;;;;31.25;29.00;;;;;16.03;97.77;100067.63;5117854;27;46134;-78
2022/06/20 02:24:10;;;;;;;;;28.25;27.75;;;;;16.12;97.59;100086.69;5119274;27;45484;-77
2022/06/20 02:26:38;;;;;;;;;31.75;28.75;;;;;16.19;97.75;100110.38;5134962;27;45402;-77
2022/06/20 02:29:21;;;;;;;;;43.25;31.50;;;;;16.16;95.54;100116.72;5117658;27;45543;-77
2022/06/20 02:31:51;;;;;;;;;28.75;27.75;;;;;16.24;96.84;100146.50;5119726;27;45810;-77
2022/06/20 02:34:17;;;;;;;;;32.25;29.25;;;;;16.26;95.73;100165.97;5120512;27;45437;-77
2022/06/20 02:36:44;;;;;;;;;31.25;25.50;;;;;16.24;94.94;100175.00;5119410;27;45361;-77
2022/06/20 02:39:09;;;;;;;;;33.25;28.25;;;;;16.35;95.87;100201.97;5117192;27;45503;-77
2022/06/20 02:41:39;;;;;;;;;34.50;30.25;;;;;16.40;96.11;100212.41;5119127;27;45371;-76
2022/06/20 02:44:15;;;;;;;;;29.00;26.50;;;;;16.24;95.87;100191.84;5118066;27;45433;-77
2022/06/20 02:46:42;;;;;;;;;30.75;25.50;;;;;16.48;98.30;100212.91;5118282;27;45470;-77
2022/06/20 02:49:09;;;;;;;;;28.50;26.75;;;;;16.56;97.36;100215.19;5116231;27;45349;-77
2022/06/20 02:51:42;;;;;;;;;32.50;29.00;;;;;16.63;96.25;100232.63;5118805;27;45629;-77
2022/06/20 02:54:12;;;;;;;;;33.75;27.00;;;;;16.67;95.89;100239.50;5119109;27;45308;-79
2022/06/20 02:56:43;;;;;;;;;33.75;28.00;;;;;16.70;96.02;100237.56;5120867;27;45369;-79
2022/06/20 02:59:22;;;;;;;;;29.75;27.50;;;;;16.76;94.74;100233.72;5119682;27;45337;-80
2022/06/20 03:02:02;;;;;;;;;27.25;27.25;;;;;16.82;94.70;100241.41;5122999;27;46865;-80
2022/06/20 03:04:31;;;;;;;;;27.00;23.50;;;;;16.83;94.74;100245.78;5120210;27;45292;-80
2022/06/20 03:07:02;;;;;;;;;32.00;26.00;;;;;16.85;94.74;100254.59;5117567;27;45451;-81
2022/06/20 03:09:31;;;;;;;;;33.00;31.00;;;;;16.86;95.04;100251.00;5117667;27;45662;-80
2022/06/20 03:11:57;;;;;;;;;42.75;35.50;;;;;16.91;93.83;100264.09;5118939;27;46426;-80
2022/06/20 03:14:29;;;;;;;;;38.25;33.75;;;;;16.93;93.76;100272.03;5118992;27;45441;-80
2022/06/20 03:16:56;;;;;;;;;35.75;32.50;;;;;16.94;93.26;100279.97;5122690;27;45334;-79
2022/06/20 03:19:27;;;;;;;;;44.25;36.50;;;;;16.97;93.83;100289.63;5118879;27;45350;-79
2022/06/20 03:21:55;;;;;;;;;38.00;35.00;;;;;17.00;93.15;100295.66;5120657;27;45474;-79
2022/06/20 03:24:24;;;;;;;;;32.75;30.25;;;;;17.03;92.04;100310.66;5122319;27;45444;-80
2022/06/20 03:26:51;;;;;;;;;28.75;27.50;;;;;17.04;92.94;100317.75;5107220;27;45358;-78
2022/06/20 03:29:18;;;;;;;;;37.75;32.25;;;;;17.01;91.70;100296.53;5125098;27;45490;-80
2022/06/20 03:31:44;;;;;;;;;33.00;29.50;;;;;17.04;92.08;100315.94;5118174;27;45469;-80
2022/06/20 03:34:11;;;;;;;;;31.00;31.00;;;;;17.02;91.54;100328.50;5117674;27;45365;-80
2022/06/20 03:36:38;;;;;;;;;34.25;31.50;;;;;17.06;90.70;100326.53;5118664;27;45414;-80
2022/06/20 03:39:05;;;;;;;;;32.00;29.75;;;;;16.99;89.93;100335.78;5118668;27;45622;-80
2022/06/20 03:41:31;;;;;;;;;33.50;31.25;;;;;17.02;90.55;100344.53;5116132;27;45452;-80
2022/06/20 03:44:03;;;;;;;;;29.25;27.25;;;;;17.03;89.07;100348.03;5118051;27;45414;-80
2022/06/20 03:47:06;;;;;;;;;31.00;29.25;;;;;17.04;90.62;100339.09;5115584;27;45571;-79
2022/06/20 03:49:58;;;;;;;;;26.50;25.50;;;;;17.02;88.72;100341.84;5118022;27;45337;-79
2022/06/20 03:52:31;;;;;;;;;32.25;26.50;;;;;17.02;90.17;100344.53;5122350;27;45685;-79
2022/06/20 03:55:12;;;;;;;;;29.00;27.75;;;;;16.99;88.64;100350.00;5135346;27;45330;-80
2022/06/20 03:57:52;;;;;;;;;25.25;25.25;;;;;16.87;88.80;100345.28;5126035;27;45428;-79
2022/06/20 04:00:25;;;;;;;;;30.50;26.50;;;;;16.81;88.77;100349.09;5119192;27;45552;-80
2022/06/20 04:03:06;;;;;;;;;27.75;26.75;;;;;16.75;88.64;100346.72;5119079;27;46619;-80
2022/06/20 04:05:45;;;;;;;;;26.25;26.25;;;;;16.70;87.16;100359.41;5098292;27;45393;-80
2022/06/20 04:11:46;;;;;;;;;30.00;25.50;;;;;16.54;89.00;100377.13;5116981;27;45425;-80
2022/06/20 04:14:26;;;;;;;;;31.25;29.75;;;;;16.54;87.74;100387.78;5117616;27;46024;-80
2022/06/20 04:16:57;;;;;;;;;32.00;27.00;;;;;16.50;88.31;100382.59;5117311;27;45326;-80
2022/06/20 04:19:39;;;;;;;;;26.75;24.75;;;;;16.47;89.05;100374.75;5119913;27;45402;-80
2022/06/20 04:22:13;;;;;;;;;33.75;26.00;;;;;16.48;88.29;100381.78;5119392;27;45440;-79
2022/06/20 04:24:47;;;;;;;;;25.25;22.25;;;;;16.42;88.43;100389.25;5117831;27;47356;-78
2022/06/20 04:27:44;;;;;;;;;29.75;25.50;;;;;16.29;88.07;100379.16;5111618;27;45445;-80
2022/06/20 04:30:19;;;;;;;;;29.00;24.75;;;;;16.22;87.95;100387.50;5115635;27;45407;-78
2022/06/20 04:32:52;;;;;;;;;32.00;28.00;;;;;16.16;87.92;100389.50;5117658;27;45347;-76
2022/06/20 04:35:23;;;;;;;;;33.25;28.00;;;;;16.17;88.23;100409.06;5122888;27;46629;-77
2022/06/20 04:38:18;;;;;;;;;44.00;35.75;;;;;16.14;87.29;100393.19;5117160;27;45395;-76
2022/06/20 04:40:56;;;;;;;;;27.50;26.75;;;;;16.13;87.37;100399.47;5094892;27;45373;-78
2022/06/20 04:43:50;;;;;;;;;30.25;28.75;;;;;16.12;87.55;100411.03;5112244;27;45500;-76
2022/06/20 04:46:29;;;;;;;;;34.00;33.25;;;;;16.06;86.50;100414.00;5113211;27;46462;-78
2022/06/20 04:48:56;;;;;;;;;35.75;31.75;;;;;16.00;86.46;100417.78;5117356;27;45334;-77
2022/06/20 04:51:35;;;;;;;;;30.50;27.75;;;;;16.03;86.38;100425.66;5117472;27;45461;-77
2022/06/20 04:54:03;;;;;;;;;34.25;32.25;;;;;16.03;85.82;100419.47;5117916;27;45620;-77
2022/06/20 04:56:29;;;;;;;;;30.00;27.25;;;;;16.03;86.05;100424.78;5117166;27;45741;-77
2022/06/20 04:59:02;;;;;;;;;33.25;30.75;;;;;16.04;86.17;100432.72;5115910;27;45422;-77
2022/06/20 05:01:33;;;;;;;;;35.75;29.50;;;;;16.04;86.03;100438.06;5116433;27;45559;-77
2022/06/20 05:04:07;;;;;;;;;35.75;30.00;;;;;16.02;86.03;100444.38;5116620;27;45461;-76
2022/06/20 05:06:36;;;;;;;;;33.50;29.00;;;;;15.97;85.56;100452.59;5115874;27;46312;-76
2022/06/20 05:09:25;;;;;;;;;34.50;28.00;;;;;16.04;85.74;100464.72;5115240;27;45693;-77
2022/06/20 05:12:05;;;;;;;;;33.50;33.50;;;;;16.02;85.52;100458.59;5116514;27;45461;-77
2022/06/20 05:14:39;;;;;;;;;38.75;31.25;;;;;15.97;85.63;100457.91;5115672;27;45409;-78
2022/06/20 05:17:14;;;;;;;;;27.50;25.75;;;;;15.95;85.34;100449.13;5116104;27;45570;-78
2022/06/20 05:19:45;;;;;;;;;34.25;27.50;;;;;15.90;84.75;100451.16;5117067;27;45366;-76
2022/06/20 05:22:19;;;;;;;;;26.00;25.50;;;;;15.86;85.34;100445.06;5117415;27;45456;-78
2022/06/20 05:24:47;;;;;;;;;29.25;25.00;;;;;15.93;85.05;100451.00;5116635;27;45461;-78
2022/06/20 05:27:29;;;;;;;;;26.00;25.00;;;;;15.85;84.45;100437.13;5115248;27;46629;-78
2022/06/20 05:30:00;;;;;;;;;29.50;25.75;;;;;15.99;84.56;100448.94;5115640;27;45504;-77
2022/06/20 05:32:49;;;;;;;;;32.50;29.00;;;;;16.04;84.16;100445.19;5115449;27;45393;-77
2022/06/20 05:35:20;;;;;;;;;33.25;28.75;;;;;16.09;83.63;100452.03;5116626;27;45416;-78
2022/06/20 05:37:52;;;;;;;;;30.25;25.50;;;;;16.08;83.58;100460.09;5115343;27;45481;-78
2022/06/20 05:40:57;;;;;;;;;31.00;28.75;;;;;16.09;83.35;100472.50;5116392;27;45389;-81
2022/06/20 05:43:22;;;;;;;;;26.25;25.00;;;;;16.13;83.21;100480.28;5093521;27;45390;-80
2022/06/20 05:45:54;;;;;;;;;21.25;20.00;;;;;16.11;83.70;100484.84;5092669;27;45707;-80
2022/06/20 05:48:25;;;;;;;;;30.75;27.00;;;;;16.19;83.45;100491.63;5059459;28;46655;-77
2022/06/20 05:50:58;;;;;;;;;27.75;24.50;;;;;16.21;83.18;100500.41;5095785;27;45426;-78
2022/06/20 05:53:46;;;;;;;;;30.75;29.00;;;;;16.20;83.05;100490.69;5104468;27;45417;-79
2022/06/20 05:56:24;;;;;;;;;20.00;18.25;;;;;16.24;82.61;100508.28;5094726;27;45477;-77
2022/06/20 05:58:52;;;;;;;;;24.00;22.50;;;;;16.16;81.95;100496.16;5075917;27;46350;-81
2022/06/20 06:01:25;;;;;;;;;23.00;23.00;;;;;16.23;82.36;100495.88;5075034;27;45513;-80
2022/06/20 06:04:11;;;;;;;;;22.75;19.75;;;;;16.23;81.86;100506.53;5077834;27;45496;-78
2022/06/20 06:06:42;;;;;;;;;21.75;19.25;;;;;16.19;81.81;100494.31;5087845;27;45051;-77
2022/06/20 06:09:23;;;;;;;;;25.50;24.50;;;;;16.34;81.79;100512.28;5103012;27;45502;-76
2022/06/20 06:12:22;;;;;;;;;16.00;16.00;;;;;16.33;80.92;100513.19;5107498;27;45418;-78
2022/06/20 06:14:55;;;;;;;;;26.75;25.00;;;;;16.26;80.97;100506.41;5102679;27;45515;-77
2022/06/20 06:17:30;;;;;;;;;21.50;21.00;;;;;16.39;80.92;100526.25;5115947;27;45373;-76
2022/06/20 06:20:00;;;;;;;;;21.25;20.50;;;;;16.43;80.02;100519.84;5116611;27;45370;-77
2022/06/20 06:22:34;;;;;;;;;22.50;19.50;;;;;16.46;80.53;100535.72;5113122;27;45399;-81
2022/06/20 06:25:17;;;;;;;;;22.75;20.25;;;;;16.53;79.75;100530.97;5104998;27;45552;-80
2022/06/20 06:27:45;;;;;;;;;18.50;18.00;;;;;16.60;79.67;100527.09;5113767;27;45382;-82
2022/06/20 06:30:23;;;;;;;;;21.25;21.25;;;;;16.67;78.80;100541.00;5117641;27;45818;-81
2022/06/20 06:33:20;;;;;;;;;22.50;19.25;;;;;16.69;78.90;100536.47;5114868;27;45417;-81
2022/06/20 06:35:50;;;;;;;;;19.25;18.75;;;;;16.68;78.39;100551.59;5095861;27;45490;-80
2022/06/20 06:38:41;;;;;;;;;20.50;18.75;;;;;16.61;78.50;100541.28;5116143;27;45442;-81
2022/06/20 06:41:14;;;;;;;;;22.00;17.25;;;;;16.56;78.31;100545.97;5108429;27;45699;-81
2022/06/20 06:43:44;;;;;;;;;19.75;17.00;;;;;16.44;78.53;100534.94;5114928;27;45444;-82
2022/06/20 06:46:15;;;;;;;;;18.75;18.25;;;;;16.49;78.13;100546.25;5114888;27;45516;-79
2022/06/20 06:48:53;;;;;;;;;19.75;19.75;;;;;16.51;78.63;100551.53;5117485;27;45476;-81
2022/06/20 06:51:26;;;;;;;;;17.00;17.00;;;;;16.55;77.89;100569.13;5116547;27;46397;-82
2022/06/20 06:54:02;;;;;;;;;20.75;19.00;;;;;16.61;78.12;100581.31;5120262;27;45488;-81
2022/06/20 06:56:37;;;;;;;;;18.25;14.50;;;;;16.56;77.95;100583.31;5118584;27;45471;-81
2022/06/20 06:59:14;;;;;;;;;14.50;14.50;;;;;16.24;77.54;100526.94;5114632;27;45367;-81
2022/06/20 07:01:48;;;;;;;;;21.50;20.50;;;;;16.38;77.72;100548.53;5116476;27;46910;-81
2022/06/20 07:04:17;;;;;;;;;19.25;16.00;;;;;16.56;76.79;100589.50;5118842;27;45411;-81
2022/06/20 07:06:49;;;;;;;;;17.25;15.50;;;;;16.47;77.29;100595.25;5119376;27;45405;-80
2022/06/20 07:09:14;;;;;;;;;14.25;14.25;;;;;16.40;76.85;100599.13;5120664;27;45483;-81
2022/06/20 07:11:47;;;;;;;;;17.75;16.75;;;;;16.33;77.27;100599.41;5119745;27;46341;-80
2022/06/20 07:14:21;;;;;;;;;18.00;16.50;;;;;16.31;77.61;100600.41;5118532;27;45538;-79
2022/06/20 07:16:49;;;;;;;;;16.25;16.25;;;;;16.31;77.22;100609.28;5117344;27;45387;-78
2022/06/20 07:19:15;;;;;;;;;16.00;16.00;;;;;16.29;77.02;100599.59;5118329;27;45445;-77
2022/06/20 07:21:43;;;;;;;;;18.50;17.50;;;;;16.33;77.11;100598.53;5116878;27;45749;-77
2022/06/20 07:24:13;;;;;;;;;20.00;15.25;;;;;16.37;77.00;100605.47;5111083;27;45351;-77
2022/06/20 07:27:00;;;;;;;;;24.75;19.25;;;;;16.31;76.66;100605.75;5118280;27;45410;-78
2022/06/20 07:29:33;;;;;;;;;15.75;15.75;;;;;16.31;77.07;100611.09;5117709;27;45499;-76
2022/06/20 07:32:10;;;;;;;;;23.00;18.00;;;;;16.25;76.99;100606.03;5117068;27;45653;-78
2022/06/20 07:34:41;;;;;;;;;27.00;19.00;;;;;16.19;76.99;100607.13;5117021;27;45503;-78
2022/06/20 07:37:13;;;;;;;;;14.25;14.25;;;;;16.31;76.82;100624.41;5116377;27;45538;-78
2022/06/20 07:39:51;;;;;;;;;22.00;19.00;;;;;16.27;76.69;100628.13;5115394;27;45574;-78
2022/06/20 07:42:26;;;;;;;;;18.00;17.00;;;;;16.24;76.82;100628.28;5116899;27;46249;-78
2022/06/20 07:44:57;;;;;;;;;17.50;16.75;;;;;16.23;76.52;100623.88;5117590;27;45861;-77
2022/06/20 07:47:45;;;;;;;;;16.75;15.50;;;;;16.30;76.88;100646.69;5127434;27;45508;-78
2022/06/20 07:50:17;;;;;;;;;22.50;18.25;;;;;16.23;76.72;100634.53;5123903;27;45475;-78
2022/06/20 07:52:52;;;;;;;;;19.00;18.75;;;;;16.15;77.20;100635.75;5117067;27;46257;-78
2022/06/20 07:55:22;;;;;;;;;17.00;16.00;;;;;16.24;76.70;100636.28;5117234;27;45373;-77
2022/06/20 07:57:56;;;;;;;;;16.25;9.00;;;;;16.16;76.92;100624.13;5116260;27;45363;-78
2022/06/20 08:00:25;;;;;;;;;18.75;14.50;;;;;16.27;76.82;100636.16;5115249;27;45561;-78
2022/06/20 08:03:09;;;;;;;;;20.50;19.50;;;;;16.34;76.91;100648.28;5115213;27;46070;-78
2022/06/20 08:05:46;;;;;;;;;18.25;17.00;;;;;16.36;76.87;100633.06;5107710;27;45548;-78
2022/06/20 08:08:17;;;;;;;;;21.50;19.75;;;;;16.36;76.20;100633.06;5115702;27;45421;-78
2022/06/20 08:10:50;;;;;;;;;19.75;18.75;;;;;16.34;76.55;100648.28;5116036;27;45456;-78
2022/06/20 08:13:15;;;;;;;;;26.25;19.00;;;;;16.29;76.22;100648.50;5116151;27;45481;-78
2022/06/20 08:15:47;;;;;;;;;18.75;15.50;;;;;16.27;76.43;100646.81;5116268;27;45342;-79
2022/06/20 08:18:13;;;;;;;;;22.00;18.75;;;;;16.28;76.29;100649.41;5115523;27;45463;-78
2022/06/20 08:20:47;;;;;;;;;21.25;18.25;;;;;16.28;76.13;100649.41;5115913;27;45469;-78
2022/06/20 08:23:23;;;;;;;;;24.25;21.25;;;;;16.21;76.22;100642.59;5112764;27;46543;-78
2022/06/20 08:26:15;;;;;;;;;19.50;16.25;;;;;16.24;76.60;100642.47;5117227;27;45539;-79
2022/06/20 08:29:05;;;;;;;;;18.50;18.50;;;;;16.34;76.52;100654.47;5114096;27;45487;-78
2022/06/20 08:31:48;;;;;;;;;16.75;16.75;;;;;16.39;76.22;100638.28;5114999;27;45521;-79
2022/06/20 08:34:14;;;;;;;;;17.25;16.50;;;;;16.44;75.57;100633.63;5114871;27;46338;-78
2022/06/20 08:37:07;;;;;;;;;19.00;17.50;;;;;16.48;75.01;100629.88;5114446;27;45643;-79
2022/06/20 08:39:58;;;;;;;;;16.25;14.00;;;;;16.63;74.93;100633.66;5110248;27;45489;-81
2022/06/20 08:42:51;;;;;;;;;19.75;18.75;;;;;16.90;74.17;100629.84;5118771;27;45440;-81
2022/06/20 08:45:34;;;;;;;;;22.75;20.25;;;;;16.89;72.72;100606.78;5120262;27;46008;-80
2022/06/20 08:48:41;;;;;;;;;19.00;18.50;;;;;17.15;72.47;100651.81;5128357;27;45429;-82
2022/06/20 08:51:28;;;;;;;;;22.00;22.00;;;;;17.15;72.49;100657.16;5104442;27;45206;-81
2022/06/20 08:54:18;;;;;;;;;21.00;19.50;;;;;16.96;71.85;100629.56;5118744;27;45443;-81
2022/06/20 08:57:08;;;;;;;;;16.00;12.00;;;;;17.14;71.74;100674.16;5126405;27;47155;-81
2022/06/20 08:59:43;;;;;;;;;23.75;20.50;;;;;17.09;71.46;100665.47;5113220;27;45490;-81
2022/06/20 09:02:27;;;;;;;;;21.75;18.25;;;;;17.12;71.97;100670.66;5112669;27;45553;-81
2022/06/20 09:05:11;;;;;;;;;23.50;21.25;;;;;17.14;71.77;100691.94;5115836;27;45433;-80
2022/06/20 09:08:19;;;;;;;;;21.50;21.50;;;;;17.04;72.18;100697.72;5117694;27;45505;-81
2022/06/20 09:11:32;;;;;;;;;21.25;21.00;;;;;17.04;72.11;100692.38;5092683;27;45574;-81
2022/06/20 09:14:12;;;;;;;;;21.75;19.25;;;;;17.10;71.81;100693.06;5008002;28;45519;-81
2022/06/20 09:17:02;;;;;;;;;22.50;20.00;;;;;17.18;71.84;100691.75;5002769;28;45454;-80
2022/06/20 09:19:46;;;;;;;;;22.25;20.00;;;;;17.21;71.77;100683.59;5004631;28;46584;-80
2022/06/20 09:22:59;;;;;;;;;19.75;16.75;;;;;17.36;71.29;100686.50;5010902;28;45489;-81
2022/06/20 09:25:24;;;;;;;;;19.50;19.50;;;;;17.34;70.92;100683.91;4982816;28;45443;-80
2022/06/20 09:28:46;;;;;;;;;20.25;20.25;;;;;17.32;70.85;100699.13;4979073;28;45470;-80
2022/06/20 09:31:27;;;;;;;;;28.00;19.75;;;;;17.32;70.76;100706.28;4914420;28;45528;-80
2022/06/20 09:34:21;;;;;;;;;21.50;20.50;;;;;17.40;70.11;100704.13;4917036;28;45433;-79
2022/06/20 09:36:55;;;;;;;;;23.75;18.25;;;;;17.39;70.40;100703.25;4925666;28;45426;-79
2022/06/20 09:39:29;;;;;;;;;25.25;19.50;;;;;17.52;69.88;100714.25;4917139;28;45706;-81
2022/06/20 09:42:19;;;;;;;;;18.50;17.25;;;;;17.68;69.84;100714.38;4923935;28;45643;-80
2022/06/20 09:45:10;;;;;;;;;19.00;18.25;;;;;17.79;69.19;100711.19;4931579;28;45580;-81
2022/06/20 09:47:43;;;;;;;;;21.50;19.50;;;;;17.86;68.74;100701.09;4921752;28;45507;-82
2022/06/20 09:50:35;;;;;;;;;17.25;17.00;;;;;18.08;67.70;100716.97;4955463;28;45676;-80
2022/06/20 09:53:29;;;;;;;;;19.25;16.75;;;;;18.23;67.80;100715.34;4991255;28;45576;-81
2022/06/20 09:56:16;;;;;;;;;22.00;20.00;;;;;18.35;67.10;100714.72;4986992;28;45529;-81
2022/06/20 09:58:53;;;;;;;;;23.25;21.50;;;;;18.50;65.85;100726.47;5001639;28;45459;-81
2022/06/20 10:01:37;;;;;;;;;24.00;20.00;;;;;18.53;65.72;100728.97;5042493;28;45414;-80
2022/06/20 10:04:17;;;;;;;;;15.00;15.00;;;;;18.63;66.25;100722.22;5042919;28;45549;-81
2022/06/20 10:06:55;;;;;;;;;21.00;17.50;;;;;18.86;66.13;100725.56;5081847;27;45769;-80
2022/06/20 10:09:40;;;;;;;;;19.25;16.50;;;;;19.06;64.44;100718.28;5112050;27;45499;-81
2022/06/20 10:12:11;;;;;;;;;24.25;21.50;;;;;19.12;64.09;100709.91;5114249;27;45567;-81
2022/06/20 10:14:51;;;;;;;;;24.25;22.25;;;;;19.32;63.92;100723.09;5114370;27;46213;-81
2022/06/20 10:17:34;;;;;;;;;16.00;16.00;;;;;19.08;63.55;100669.03;5113704;27;45524;-80
2022/06/20 10:20:18;;;;;;;;;19.00;19.00;;;;;19.53;62.50;100714.84;5117652;27;45508;-81
2022/06/20 10:23:20;;;;;;;;;17.75;17.25;;;;;19.50;62.99;100710.50;5121843;27;45682;-80
2022/06/20 10:26:14;;;;;;;;;15.00;14.00;;;;;19.63;62.47;100685.69;5109593;27;45368;-81
2022/06/20 10:28:45;;;;;;;;;23.00;20.50;;;;;19.88;61.62;100710.19;5111498;27;45356;-80
2022/06/20 10:31:31;;;;;;;;;20.25;19.50;;;;;20.13;62.14;100713.28;5113266;27;45603;-81
2022/06/20 10:34:06;;;;;;;;;23.50;21.00;;;;;20.12;61.06;100716.91;5117535;27;45535;-82
2022/06/20 10:36:49;;;;;;;;;24.25;19.25;;;;;20.17;60.71;100717.53;5117173;27;46237;-82
2022/06/20 10:39:29;;;;;;;;;20.25;20.25;;;;;20.27;60.82;100725.91;5117022;27;45502;-78
2022/06/20 10:42:32;;;;;;;;;24.25;22.25;;;;;20.35;60.40;100729.03;5115523;27;45486;-76
2022/06/20 10:45:17;;;;;;;;;20.25;19.50;;;;;20.35;60.43;100735.25;5117760;27;45393;-75
2022/06/20 10:47:46;;;;;;;;;22.50;21.50;;;;;20.40;59.86;100743.88;5114689;27;45857;-76
2022/06/20 10:50:45;;;;;;;;;19.25;16.25;;;;;20.41;60.03;100751.00;5113102;27;45409;-81
2022/06/20 10:53:17;;;;;;;;;21.00;20.00;;;;;20.48;60.28;100743.47;5104253;27;45530;-82
2022/06/20 10:55:45;;;;;;;;;24.75;24.75;;;;;20.51;59.34;100743.28;5118405;27;45528;-83
2022/06/20 10:58:35;;;;;;;;;21.75;19.00;;;;;20.61;59.41;100743.59;5123525;27;46283;-83
2022/06/20 11:01:43;;;;;;;;;24.00;24.00;;;;;20.67;59.04;100745.94;5121033;27;45525;-81
2022/06/20 11:04:38;;;;;;;;;27.00;23.25;;;;;20.79;59.38;100746.16;5111478;27;45357;-83
2022/06/20 11:07:32;;;;;;;;;22.00;21.00;;;;;20.69;58.63;100709.09;5095945;27;45450;-80
2022/06/20 11:10:21;;;;;;;;;26.25;23.25;;;;;20.92;58.64;100744.44;5085873;27;46184;-83
2022/06/20 11:13:01;;;;;;;;;33.75;30.00;;;;;21.05;58.78;100745.44;5100603;27;45515;-83
2022/06/20 11:15:33;;;;;;;;;26.75;23.75;;;;;21.20;58.18;100742.78;5097081;27;45499;-84
2022/06/20 11:18:17;;;;;;;;;32.75;30.50;;;;;21.29;58.63;100750.25;5095937;27;45595;-81
2022/06/20 11:20:56;;;;;;;;;28.00;24.75;;;;;21.42;56.72;100705.53;5096279;27;45498;-85
2022/06/20 11:23:36;;;;;;;;;32.25;28.75;;;;;21.67;55.34;100705.78;5101251;27;45499;-82
2022/06/20 11:26:11;;;;;;;;;22.50;21.50;;;;;22.03;55.81;100758.19;5102187;27;45617;-83
2022/06/20 11:28:52;;;;;;;;;37.75;34.75;;;;;22.08;55.13;100751.53;5098280;27;45382;-82
2022/06/20 11:31:44;;;;;;;;;24.25;24.25;;;;;21.87;55.90;100752.94;5097734;27;46383;-83
2022/06/20 11:34:31;;;;;;;;;33.00;31.25;;;;;21.91;55.24;100749.94;5100623;27;45338;-81
2022/06/20 11:37:08;;;;;;;;;23.25;20.75;;;;;22.02;55.43;100741.19;5106324;27;45549;-80
2022/06/20 11:40:06;;;;;;;;;30.50;27.25;;;;;22.19;54.83;100751.69;5100038;27;45563;-83
2022/06/20 11:42:52;;;;;;;;;29.25;29.00;;;;;22.29;54.48;100759.16;5106547;27;45657;-83
2022/06/20 11:45:23;;;;;;;;;24.50;21.50;;;;;22.14;54.56;100759.22;5119049;27;45361;-82
2022/06/20 11:47:55;;;;;;;;;21.50;19.75;;;;;22.15;54.85;100731.34;5115986;27;45566;-83
2022/06/20 11:50:35;;;;;;;;;19.50;19.50;;;;;22.36;54.79;100741.66;5116519;27;45428;-82
2022/06/20 11:53:19;;;;;;;;;31.25;30.00;;;;;22.51;53.72;100731.69;5118849;27;45651;-84
2022/06/20 11:55:52;;;;;;;;;24.25;22.25;;;;;22.68;53.56;100738.63;5122834;27;45540;-83
2022/06/20 11:58:34;;;;;;;;;21.75;19.50;;;;;22.76;53.52;100706.66;5118669;27;45519;-82
2022/06/20 12:01:14;;;;;;;;;18.50;18.50;;;;;23.21;52.83;100711.63;5114160;27;45332;-78